Time;durP1;ratioP1;P1;durP2;ratioP2;P2;SDS_P1;SDS_P2;PMS_P1;PMS_P2;Temp;Humidity;BMP_temperature;BMP_pressure;BME280_temperature;BME280_humidity;BME280_pressure;Samples;Min_cycle;Max_cycle;Signal;HPM_P1;HPM_P2
2022/08/25 00:02:49;;;;;;;18.67;9.25;;;;;;;;;;6116732;23;20158;-88
2022/08/25 00:05:54;;;;;;;14.88;8.07;;;;;;;;;;6118476;23;20242;-88
2022/08/25 00:09:00;;;;;;;15.80;8.73;;;;;;;;;;6118759;23;20588;-89
2022/08/25 00:12:06;;;;;;;14.32;9.00;;;;;;;;;;6117788;23;20217;-86
2022/08/25 00:15:12;;;;;;;19.52;8.57;;;;;;;;;;6118202;23;20289;-91
2022/08/25 00:18:18;;;;;;;17.42;9.02;;;;;;;;;;6115071;23;20290;-89
2022/08/25 00:21:23;;;;;;;19.60;8.90;;;;;;;;;;6116181;23;20152;-88
2022/08/25 00:24:29;;;;;;;18.23;8.68;;;;;;;;;;6133871;23;20165;-88
2022/08/25 00:27:34;;;;;;;14.52;8.18;;;;;;;;;;6116044;23;20224;-87
2022/08/25 00:30:40;;;;;;;12.32;7.65;;;;;;;;;;6116597;23;20174;-89
2022/08/25 00:33:46;;;;;;;19.15;8.70;;;;;;;;;;6114646;23;20181;-88
2022/08/25 00:36:51;;;;;;;14.57;7.60;;;;;;;;;;6115319;23;20630;-86
2022/08/25 00:39:57;;;;;;;15.35;8.70;;;;;;;;;;6118393;23;20173;-89
2022/08/25 00:43:02;;;;;;;14.68;8.00;;;;;;;;;;6119290;23;20165;-88
2022/08/25 00:46:09;;;;;;;14.80;8.00;;;;;;;;;;6118519;23;20192;-87
2022/08/25 00:49:16;;;;;;;12.63;7.57;;;;;;;;;;6119240;23;20601;-88
2022/08/25 00:52:23;;;;;;;15.10;8.50;;;;;;;;;;6117111;23;20297;-87
2022/08/25 00:55:30;;;;;;;15.77;8.40;;;;;;;;;;6118117;23;20149;-88
2022/08/25 00:58:36;;;;;;;18.75;7.70;;;;;;;;;;6117876;23;20169;-89
2022/08/25 01:01:43;;;;;;;22.70;9.65;;;;;;;;;;6117885;23;20506;-89
2022/08/25 01:04:48;;;;;;;15.57;8.68;;;;;;;;;;6118090;23;20168;-88
2022/08/25 01:07:54;;;;;;;13.93;8.45;;;;;;;;;;6117454;23;20173;-88
2022/08/25 01:11:00;;;;;;;15.80;7.95;;;;;;;;;;6117441;23;20193;-88
2022/08/25 01:14:05;;;;;;;15.13;7.70;;;;;;;;;;6118131;23;20169;-87
2022/08/25 01:17:12;;;;;;;17.67;7.90;;;;;;;;;;6119160;23;20169;-88
2022/08/25 01:20:18;;;;;;;16.48;8.30;;;;;;;;;;6117601;23;20600;-89
2022/08/25 01:23:25;;;;;;;17.23;8.13;;;;;;;;;;6115398;23;20374;-88
2022/08/25 01:26:32;;;;;;;14.95;8.35;;;;;;;;;;6114950;23;20192;-88
2022/08/25 01:29:38;;;;;;;18.52;8.02;;;;;;;;;;6116948;23;20221;-89
2022/08/25 01:32:43;;;;;;;16.48;8.45;;;;;;;;;;6117367;23;20197;-88
2022/08/25 01:35:48;;;;;;;16.55;8.02;;;;;;;;;;6116608;23;20253;-89
2022/08/25 01:38:55;;;;;;;16.65;8.70;;;;;;;;;;6116745;23;20177;-89
2022/08/25 01:42:09;;;;;;;18.42;8.48;;;;;;;;;;6116410;23;20177;-89
2022/08/25 01:45:14;;;;;;;17.88;8.80;;;;;;;;;;6116729;23;20244;-88
2022/08/25 01:48:19;;;;;;;14.25;8.32;;;;;;;;;;6116722;23;20165;-88
2022/08/25 01:51:25;;;;;;;16.50;8.80;;;;;;;;;;6116412;23;20664;-88
2022/08/25 01:54:32;;;;;;;16.00;8.48;;;;;;;;;;6115802;23;20260;-90
2022/08/25 01:57:37;;;;;;;22.95;8.32;;;;;;;;;;6115455;23;20717;-88
2022/08/25 02:00:45;;;;;;;18.27;8.65;;;;;;;;;;6115769;23;20172;-87
2022/08/25 02:03:51;;;;;;;15.68;7.97;;;;;;;;;;6116385;23;20229;-89
2022/08/25 02:07:00;;;;;;;19.35;8.73;;;;;;;;;;6116216;23;20196;-90
2022/08/25 02:10:07;;;;;;;17.33;9.07;;;;;;;;;;6118141;23;20173;-90
2022/08/25 02:13:13;;;;;;;17.33;9.00;;;;;;;;;;6133234;23;20169;-88
2022/08/25 02:16:19;;;;;;;17.67;9.32;;;;;;;;;;6115618;23;20173;-88
2022/08/25 02:19:25;;;;;;;15.27;8.95;;;;;;;;;;6117982;23;20182;-90
2022/08/25 02:22:30;;;;;;;14.43;8.13;;;;;;;;;;6117465;23;20181;-89
2022/08/25 02:25:37;;;;;;;21.63;8.48;;;;;;;;;;6117160;23;20197;-87
2022/08/25 02:28:43;;;;;;;17.85;9.57;;;;;;;;;;6115415;23;20169;-88
2022/08/25 02:31:48;;;;;;;19.92;9.18;;;;;;;;;;6115367;23;20169;-88
2022/08/25 02:34:54;;;;;;;22.63;10.23;;;;;;;;;;6134147;23;20242;-90
2022/08/25 02:37:59;;;;;;;18.08;9.45;;;;;;;;;;6117135;23;20173;-88
2022/08/25 02:41:11;;;;;;;19.67;9.52;;;;;;;;;;6116677;23;20172;-88
2022/08/25 02:44:16;;;;;;;19.48;9.55;;;;;;;;;;6115885;23;20214;-88
2022/08/25 02:47:22;;;;;;;18.02;9.80;;;;;;;;;;6116448;23;20192;-90
2022/08/25 02:50:27;;;;;;;15.00;8.98;;;;;;;;;;6115236;23;20192;-90
2022/08/25 02:53:32;;;;;;;19.95;9.40;;;;;;;;;;6116125;23;20597;-89
2022/08/25 02:56:39;;;;;;;19.83;9.23;;;;;;;;;;6116046;23;20294;-89
2022/08/25 02:59:47;;;;;;;16.52;9.10;;;;;;;;;;6115592;23;20673;-90
2022/08/25 03:02:52;;;;;;;18.90;9.23;;;;;;;;;;6114663;23;20193;-88
2022/08/25 03:05:57;;;;;;;18.05;8.70;;;;;;;;;;6116175;23;20188;-88
2022/08/25 03:09:02;;;;;;;17.90;8.77;;;;;;;;;;6116658;23;20200;-89
2022/08/25 03:12:09;;;;;;;15.75;8.98;;;;;;;;;;6116479;23;20224;-89
2022/08/25 03:15:16;;;;;;;17.55;9.18;;;;;;;;;;6116560;23;20208;-87
2022/08/25 03:18:21;;;;;;;17.05;9.05;;;;;;;;;;6114882;23;20173;-89
2022/08/25 03:21:27;;;;;;;21.02;9.77;;;;;;;;;;6116267;23;20273;-88
2022/08/25 03:24:32;;;;;;;18.35;9.70;;;;;;;;;;6114735;23;20164;-86
2022/08/25 03:27:38;;;;;;;18.83;9.85;;;;;;;;;;6115991;23;20192;-90
2022/08/25 03:30:43;;;;;;;18.02;10.23;;;;;;;;;;6116903;23;20189;-88
2022/08/25 03:33:49;;;;;;;21.05;10.32;;;;;;;;;;6116495;23;20229;-87
2022/08/25 03:36:55;;;;;;;22.33;12.43;;;;;;;;;;6115848;23;20165;-89
2022/08/25 03:40:00;;;;;;;23.88;11.95;;;;;;;;;;6115943;23;20176;-88
2022/08/25 03:43:06;;;;;;;23.63;12.43;;;;;;;;;;6115642;23;20594;-90
2022/08/25 03:46:18;;;;;;;23.95;12.68;;;;;;;;;;6116331;23;20171;-89
2022/08/25 03:49:23;;;;;;;26.00;12.15;;;;;;;;;;6116457;23;20181;-87
2022/08/25 03:52:29;;;;;;;25.08;13.18;;;;;;;;;;6115615;23;20224;-88
2022/08/25 03:55:33;;;;;;;24.50;12.68;;;;;;;;;;6116756;23;20177;-89
2022/08/25 03:58:40;;;;;;;23.13;11.82;;;;;;;;;;6115737;23;20450;-87
2022/08/25 04:01:56;;;;;;;24.23;12.38;;;;;;;;;;6115457;23;20624;-89
2022/08/25 04:05:01;;;;;;;27.35;13.13;;;;;;;;;;6117600;23;20174;-89
2022/08/25 04:08:08;;;;;;;25.90;12.27;;;;;;;;;;6113290;23;20196;-89
2022/08/25 04:11:14;;;;;;;24.23;12.15;;;;;;;;;;6114570;23;20212;-89
2022/08/25 04:14:21;;;;;;;23.27;11.88;;;;;;;;;;6112467;23;20221;-87
2022/08/25 04:17:26;;;;;;;18.92;11.13;;;;;;;;;;6115645;23;20704;-88
2022/08/25 04:20:31;;;;;;;24.50;10.43;;;;;;;;;;6113193;23;20177;-86
2022/08/25 04:23:36;;;;;;;19.10;10.43;;;;;;;;;;6114127;23;20177;-88
2022/08/25 04:26:42;;;;;;;20.13;10.30;;;;;;;;;;6115408;23;20197;-90
2022/08/25 04:29:49;;;;;;;24.58;10.98;;;;;;;;;;6116985;23;20206;-88
2022/08/25 04:32:54;;;;;;;22.67;12.05;;;;;;;;;;6116726;23;20173;-90
2022/08/25 04:35:59;;;;;;;20.10;10.07;;;;;;;;;;6117120;23;20248;-87
2022/08/25 04:39:04;;;;;;;16.80;10.02;;;;;;;;;;6116006;23;20545;-90
2022/08/25 04:42:10;;;;;;;21.30;9.52;;;;;;;;;;6115231;23;20168;-88
2022/08/25 04:45:16;;;;;;;21.02;9.23;;;;;;;;;;6117160;23;20165;-89
2022/08/25 04:48:22;;;;;;;21.55;10.77;;;;;;;;;;6114876;23;20255;-85
2022/08/25 04:51:28;;;;;;;18.48;11.02;;;;;;;;;;6135314;23;20467;-88
2022/08/25 04:54:33;;;;;;;20.83;10.40;;;;;;;;;;6115900;23;20252;-88
2022/08/25 04:57:38;;;;;;;22.75;10.75;;;;;;;;;;6114517;23;20209;-88
2022/08/25 05:00:45;;;;;;;20.98;10.95;;;;;;;;;;6116973;23;20165;-86
2022/08/25 05:03:53;;;;;;;23.25;11.38;;;;;;;;;;6116939;23;20178;-88
2022/08/25 05:06:58;;;;;;;24.80;12.30;;;;;;;;;;6117199;23;20180;-88
2022/08/25 05:10:04;;;;;;;23.20;10.95;;;;;;;;;;6116236;23;20173;-87
2022/08/25 05:13:10;;;;;;;27.35;11.75;;;;;;;;;;6116121;23;20177;-88
2022/08/25 05:16:17;;;;;;;33.00;12.82;;;;;;;;;;6115590;23;20173;-90
2022/08/25 05:19:22;;;;;;;25.33;11.23;;;;;;;;;;6116954;23;20180;-88
2022/08/25 05:22:27;;;;;;;27.45;12.45;;;;;;;;;;6115081;23;20188;-88
2022/08/25 05:25:33;;;;;;;23.33;12.23;;;;;;;;;;6117505;23;20292;-89
2022/08/25 05:28:40;;;;;;;19.08;11.05;;;;;;;;;;6119040;23;20197;-87
2022/08/25 05:31:47;;;;;;;34.55;11.57;;;;;;;;;;6119357;23;20177;-88
2022/08/25 05:34:52;;;;;;;22.23;11.95;;;;;;;;;;6118736;23;20214;-87
2022/08/25 05:37:58;;;;;;;21.13;11.32;;;;;;;;;;6117056;23;20252;-88
2022/08/25 05:41:05;;;;;;;22.25;11.20;;;;;;;;;;6117913;23;20160;-89
2022/08/25 05:44:11;;;;;;;21.40;11.30;;;;;;;;;;6119562;23;20510;-90
2022/08/25 05:47:17;;;;;;;18.63;10.75;;;;;;;;;;6117791;23;20196;-86
2022/08/25 05:50:23;;;;;;;23.40;11.55;;;;;;;;;;6117133;23;20196;-87
2022/08/25 05:53:28;;;;;;;21.30;11.85;;;;;;;;;;6117979;23;20628;-89
2022/08/25 05:56:33;;;;;;;20.70;11.10;;;;;;;;;;6118264;23;20164;-88
2022/08/25 05:59:39;;;;;;;19.45;11.30;;;;;;;;;;6118756;23;20169;-89
2022/08/25 06:02:48;;;;;;;18.42;11.05;;;;;;;;;;6120814;23;20276;-89
2022/08/25 06:05:53;;;;;;;17.58;9.63;;;;;;;;;;6120585;23;20174;-89
2022/08/25 06:08:59;;;;;;;17.92;10.70;;;;;;;;;;6124874;23;20501;-89
2022/08/25 06:12:04;;;;;;;20.33;9.98;;;;;;;;;;6118531;23;20184;-87
2022/08/25 06:15:10;;;;;;;15.82;9.38;;;;;;;;;;6119479;23;20486;-91
2022/08/25 06:18:17;;;;;;;15.63;10.13;;;;;;;;;;6118413;23;20173;-90
2022/08/25 06:21:22;;;;;;;16.20;9.20;;;;;;;;;;6117776;23;20566;-89
2022/08/25 06:24:29;;;;;;;19.85;9.93;;;;;;;;;;6121709;23;20173;-89
2022/08/25 06:27:34;;;;;;;18.40;9.98;;;;;;;;;;6120532;23;20280;-90
2022/08/25 06:30:40;;;;;;;21.25;10.10;;;;;;;;;;6138391;23;20173;-89
2022/08/25 06:33:47;;;;;;;18.10;9.55;;;;;;;;;;6120313;23;20633;-89
2022/08/25 06:36:52;;;;;;;15.52;9.15;;;;;;;;;;6136508;23;20217;-89
2022/08/25 06:39:57;;;;;;;16.73;9.63;;;;;;;;;;6119132;23;20176;-89
2022/08/25 06:43:05;;;;;;;14.52;9.02;;;;;;;;;;6119224;23;20173;-91
2022/08/25 06:46:11;;;;;;;16.35;8.93;;;;;;;;;;6119554;23;20626;-89
2022/08/25 06:49:17;;;;;;;15.85;9.75;;;;;;;;;;6118996;23;20197;-90
2022/08/25 06:52:22;;;;;;;21.67;10.60;;;;;;;;;;6117420;23;20165;-89
2022/08/25 06:55:27;;;;;;;19.80;10.35;;;;;;;;;;6121342;23;20181;-88
2022/08/25 06:58:33;;;;;;;16.05;9.38;;;;;;;;;;6125550;23;20477;-92
2022/08/25 07:01:38;;;;;;;15.70;9.85;;;;;;;;;;6122443;23;20690;-90
2022/08/25 07:04:46;;;;;;;16.15;10.70;;;;;;;;;;6122356;23;20233;-88
2022/08/25 07:07:51;;;;;;;16.27;9.15;;;;;;;;;;6125305;23;20192;-91
2022/08/25 07:10:57;;;;;;;17.10;9.27;;;;;;;;;;6123537;23;20180;-88
2022/08/25 07:14:02;;;;;;;16.50;8.90;;;;;;;;;;6122108;23;20161;-89
2022/08/25 07:17:07;;;;;;;15.43;8.48;;;;;;;;;;6123050;23;20197;-88
2022/08/25 07:20:14;;;;;;;13.38;8.80;;;;;;;;;;6121328;23;20165;-91
2022/08/25 07:23:19;;;;;;;14.57;8.88;;;;;;;;;;6123273;23;20169;-89
2022/08/25 07:26:26;;;;;;;18.48;8.50;;;;;;;;;;6120817;23;20185;-90
2022/08/25 07:29:32;;;;;;;11.68;7.57;;;;;;;;;;6122572;23;20230;-90
2022/08/25 07:32:38;;;;;;;15.82;7.65;;;;;;;;;;6123157;23;20166;-90
2022/08/25 07:35:44;;;;;;;15.13;6.97;;;;;;;;;;6123615;23;20169;-88
2022/08/25 07:38:50;;;;;;;14.15;7.57;;;;;;;;;;6121874;23;20297;-89
2022/08/25 07:41:56;;;;;;;15.38;6.95;;;;;;;;;;6123231;23;20193;-89
2022/08/25 07:45:01;;;;;;;14.93;7.53;;;;;;;;;;6122457;23;20169;-89
2022/08/25 07:48:14;;;;;;;16.92;7.47;;;;;;;;;;6126466;23;20196;-90
2022/08/25 07:51:22;;;;;;;18.13;7.57;;;;;;;;;;6125562;23;20199;-89
2022/08/25 07:54:27;;;;;;;16.33;7.57;;;;;;;;;;6122531;23;20169;-89
2022/08/25 07:57:32;;;;;;;17.58;8.02;;;;;;;;;;6122026;23;20169;-90
2022/08/25 08:00:40;;;;;;;19.42;7.70;;;;;;;;;;6120908;23;20169;-89
2022/08/25 08:03:45;;;;;;;19.65;8.30;;;;;;;;;;6124334;23;20173;-88
2022/08/25 08:06:53;;;;;;;20.15;8.45;;;;;;;;;;6123180;23;20177;-90
2022/08/25 08:09:58;;;;;;;20.48;8.60;;;;;;;;;;6122807;23;20185;-91
2022/08/25 08:13:03;;;;;;;19.75;10.23;;;;;;;;;;6124342;23;20175;-90
2022/08/25 08:16:09;;;;;;;16.33;9.38;;;;;;;;;;6120956;23;20505;-88
2022/08/25 08:19:15;;;;;;;24.80;10.05;;;;;;;;;;6139205;23;20169;-89
2022/08/25 08:22:21;;;;;;;18.27;9.73;;;;;;;;;;6121790;23;20164;-89
2022/08/25 08:25:26;;;;;;;26.45;9.93;;;;;;;;;;6123141;23;20170;-89
2022/08/25 08:28:32;;;;;;;22.75;10.50;;;;;;;;;;6121130;23;20193;-89
2022/08/25 08:31:37;;;;;;;19.83;9.15;;;;;;;;;;6119842;23;20184;-87
2022/08/25 08:34:44;;;;;;;17.05;9.10;;;;;;;;;;6121190;23;20181;-89
2022/08/25 08:37:51;;;;;;;26.17;10.63;;;;;;;;;;6123089;23;20312;-89
2022/08/25 08:44:24;;;;;;;30.90;9.85;;;;;;;;;;6122504;23;20194;-89
2022/08/25 08:48:02;;;;;;;25.88;11.05;;;;;;;;;;6121941;23;20170;-89
2022/08/25 08:51:16;;;;;;;22.60;10.55;;;;;;;;;;6121736;23;20515;-89
2022/08/25 08:54:24;;;;;;;26.10;10.55;;;;;;;;;;6121108;23;20160;-90
2022/08/25 08:57:30;;;;;;;27.58;11.05;;;;;;;;;;6120959;23;20173;-89
2022/08/25 09:00:39;;;;;;;31.42;10.90;;;;;;;;;;6120920;23;20222;-89
2022/08/25 09:03:48;;;;;;;24.25;10.02;;;;;;;;;;6122381;23;20173;-90
2022/08/25 09:06:53;;;;;;;29.05;10.00;;;;;;;;;;6122795;23;20282;-89
2022/08/25 09:10:00;;;;;;;24.55;10.13;;;;;;;;;;6124169;23;20212;-90
2022/08/25 09:13:09;;;;;;;28.38;10.75;;;;;;;;;;6121837;23;20208;-90
2022/08/25 09:19:47;;;;;;;29.98;10.15;;;;;;;;;;6123705;23;20679;-90
2022/08/25 09:22:56;;;;;;;28.52;10.88;;;;;;;;;;6123481;23;20169;-90
2022/08/25 09:26:08;;;;;;;29.88;10.65;;;;;;;;;;6122630;23;20640;-89
2022/08/25 09:29:16;;;;;;;34.20;10.50;;;;;;;;;;6123704;23;20251;-90
2022/08/25 09:32:21;;;;;;;27.13;10.20;;;;;;;;;;6124179;23;20177;-88
2022/08/25 09:35:28;;;;;;;32.35;9.90;;;;;;;;;;6121219;23;20173;-89
2022/08/25 09:38:34;;;;;;;26.45;9.18;;;;;;;;;;6125925;23;20221;-88
2022/08/25 09:41:46;;;;;;;21.50;8.52;;;;;;;;;;6120994;23;20177;-90
2022/08/25 09:44:52;;;;;;;20.30;8.18;;;;;;;;;;6122264;23;20218;-91
2022/08/25 09:47:57;;;;;;;21.55;7.18;;;;;;;;;;6121212;23;20173;-89
2022/08/25 09:51:10;;;;;;;23.95;6.38;;;;;;;;;;6122063;23;20510;-90
2022/08/25 09:54:19;;;;;;;14.27;5.80;;;;;;;;;;6120670;23;20601;-88
2022/08/25 09:57:30;;;;;;;14.95;6.53;;;;;;;;;;6120110;23;20244;-88
2022/08/25 10:00:35;;;;;;;16.25;6.07;;;;;;;;;;6123426;23;20169;-89
2022/08/25 10:03:54;;;;;;;22.88;7.30;;;;;;;;;;6121288;23;20202;-90
2022/08/25 10:07:01;;;;;;;23.35;7.13;;;;;;;;;;6123610;23;20171;-90
2022/08/25 10:10:17;;;;;;;17.70;6.40;;;;;;;;;;6123709;23;20196;-92
2022/08/25 10:13:34;;;;;;;20.45;6.53;;;;;;;;;;6120853;23;20534;-89
2022/08/25 10:16:39;;;;;;;18.45;7.18;;;;;;;;;;6122102;23;20191;-89
2022/08/25 10:19:45;;;;;;;20.40;6.68;;;;;;;;;;6122872;23;20208;-88
2022/08/25 10:22:52;;;;;;;21.05;7.13;;;;;;;;;;6120568;23;20245;-88
2022/08/25 10:26:01;;;;;;;26.20;7.95;;;;;;;;;;6121791;23;20204;-90
2022/08/25 10:29:12;;;;;;;26.50;7.72;;;;;;;;;;6124813;23;20196;-90
2022/08/25 10:32:20;;;;;;;21.92;7.43;;;;;;;;;;6122761;23;20171;-90
2022/08/25 10:35:28;;;;;;;32.15;9.50;;;;;;;;;;6123274;23;20204;-89
2022/08/25 10:38:38;;;;;;;29.30;8.05;;;;;;;;;;6121009;23;20172;-90
2022/08/25 10:41:50;;;;;;;33.92;7.72;;;;;;;;;;6121269;23;20175;-91
2022/08/25 10:48:34;;;;;;;29.38;7.85;;;;;;;;;;6123030;23;20196;-90
2022/08/25 10:51:47;;;;;;;37.92;8.50;;;;;;;;;;6120010;23;20195;-89
2022/08/25 10:55:03;;;;;;;28.98;8.63;;;;;;;;;;6119395;23;20168;-90
2022/08/25 10:58:12;;;;;;;31.20;8.75;;;;;;;;;;6121197;23;20169;-90
2022/08/25 11:01:26;;;;;;;34.78;9.38;;;;;;;;;;6121436;23;20173;-90
2022/08/25 11:04:36;;;;;;;37.63;8.80;;;;;;;;;;6121395;23;20173;-89
2022/08/25 11:07:43;;;;;;;30.77;8.38;;;;;;;;;;6123798;23;20715;-91
2022/08/25 11:10:50;;;;;;;32.30;7.95;;;;;;;;;;6124231;23;20168;-90
2022/08/25 11:13:58;;;;;;;32.72;8.32;;;;;;;;;;6125401;23;20200;-90
2022/08/25 11:17:08;;;;;;;36.78;8.45;;;;;;;;;;6123832;23;20164;-89
2022/08/25 11:20:17;;;;;;;34.92;7.80;;;;;;;;;;6122441;23;20248;-89
2022/08/25 11:23:25;;;;;;;36.08;8.18;;;;;;;;;;6121990;23;20164;-90
2022/08/25 11:26:33;;;;;;;25.02;7.85;;;;;;;;;;6140648;23;20628;-91
2022/08/25 11:29:40;;;;;;;25.48;7.47;;;;;;;;;;6123255;23;20200;-90
2022/08/25 11:32:49;;;;;;;41.05;7.90;;;;;;;;;;6121302;23;20172;-91
2022/08/25 11:35:56;;;;;;;25.83;8.15;;;;;;;;;;6124781;23;20222;-91
2022/08/25 11:39:07;;;;;;;29.30;8.25;;;;;;;;;;6120098;23;20175;-89
2022/08/25 11:42:18;;;;;;;33.97;7.55;;;;;;;;;;6137440;23;20172;-88
2022/08/25 11:45:31;;;;;;;37.80;7.63;;;;;;;;;;6120406;23;20167;-89
2022/08/25 11:48:42;;;;;;;35.78;7.95;;;;;;;;;;6121233;23;20169;-88
2022/08/25 11:51:48;;;;;;;26.92;7.75;;;;;;;;;;6120013;23;20192;-89
2022/08/25 11:54:53;;;;;;;30.73;7.88;;;;;;;;;;6119641;23;20172;-89
2022/08/25 11:58:17;;;;;;;25.35;8.25;;;;;;;;;;6119919;23;20168;-89
2022/08/25 12:01:41;;;;;;;31.90;7.32;;;;;;;;;;6121803;23;20234;-90
2022/08/25 12:04:50;;;;;;;32.13;7.82;;;;;;;;;;6119645;23;20180;-92
2022/08/25 12:11:45;;;;;;;38.35;8.70;;;;;;;;;;6122012;23;20192;-90
2022/08/25 12:14:52;;;;;;;27.63;6.68;;;;;;;;;;6120053;23;20172;-90
2022/08/25 12:18:12;;;;;;;30.85;7.10;;;;;;;;;;6120713;23;20172;-89
2022/08/25 12:21:32;;;;;;;25.40;6.70;;;;;;;;;;6120324;23;20184;-88
2022/08/25 12:24:46;;;;;;;37.30;7.43;;;;;;;;;;6121425;23;20216;-90
2022/08/25 12:27:59;;;;;;;25.10;7.03;;;;;;;;;;6121649;23;20176;-89
2022/08/25 12:31:07;;;;;;;28.83;6.82;;;;;;;;;;6121365;23;20232;-90
2022/08/25 12:34:23;;;;;;;23.92;6.60;;;;;;;;;;6125755;23;20218;-89
2022/08/25 12:37:34;;;;;;;25.80;6.65;;;;;;;;;;6125235;23;20168;-92
2022/08/25 12:40:40;;;;;;;22.92;6.32;;;;;;;;;;6125163;23;20153;-90
2022/08/25 12:43:47;;;;;;;23.27;6.57;;;;;;;;;;6128599;23;20221;-91
2022/08/25 12:47:06;;;;;;;29.23;5.80;;;;;;;;;;6122611;23;20668;-89
2022/08/25 12:50:29;;;;;;;22.08;6.72;;;;;;;;;;6124045;23;20196;-88
2022/08/25 12:53:38;;;;;;;21.35;6.20;;;;;;;;;;6124789;23;20220;-89
2022/08/25 12:56:45;;;;;;;29.48;7.03;;;;;;;;;;6123969;23;20617;-89
2022/08/25 14:28:25;;;;;;;23.50;5.97;;;;;;;;;;6057596;23;20236;-89
2022/08/25 14:31:39;;;;;;;23.65;6.78;;;;;;;;;;6055908;23;20183;-88
2022/08/25 14:34:44;;;;;;;26.05;6.57;;;;;;;;;;6058033;23;20184;-90
2022/08/25 14:37:49;;;;;;;22.30;6.22;;;;;;;;;;6037799;23;20179;-91
2022/08/25 14:40:56;;;;;;;22.42;6.15;;;;;;;;;;6056869;23;20172;-89
2022/08/25 14:44:03;;;;;;;24.27;6.97;;;;;;;;;;6054031;23;20673;-88
2022/08/25 14:47:08;;;;;;;42.17;7.15;;;;;;;;;;6052728;23;20174;-91
2022/08/25 14:50:15;;;;;;;22.55;6.32;;;;;;;;;;6054343;23;20187;-89
2022/08/25 14:53:20;;;;;;;42.17;9.07;;;;;;;;;;6037748;23;20559;-89
2022/08/25 14:56:26;;;;;;;20.95;6.68;;;;;;;;;;6052749;23;20183;-91
2022/08/25 14:59:33;;;;;;;19.80;5.80;;;;;;;;;;6053438;23;20183;-90
2022/08/25 15:02:42;;;;;;;18.65;5.82;;;;;;;;;;6036489;23;20236;-91
2022/08/25 15:05:47;;;;;;;23.15;6.28;;;;;;;;;;6052273;23;20174;-89
2022/08/25 15:12:15;;;;;;;20.33;5.88;;;;;;;;;;6051551;23;20151;-87
2022/08/25 15:15:25;;;;;;;48.47;7.65;;;;;;;;;;6052493;23;20174;-90
2022/08/25 15:18:30;;;;;;;39.28;8.15;;;;;;;;;;6051805;23;20171;-88
2022/08/25 15:21:36;;;;;;;15.20;5.75;;;;;;;;;;6053372;23;20216;-91
2022/08/25 15:24:42;;;;;;;28.30;6.05;;;;;;;;;;6033583;23;20626;-90
2022/08/25 15:27:48;;;;;;;22.10;6.22;;;;;;;;;;6050695;23;20303;-90
2022/08/25 15:30:54;;;;;;;22.25;6.30;;;;;;;;;;6050576;23;20778;-90
2022/08/25 15:34:02;;;;;;;20.13;5.90;;;;;;;;;;6049596;23;20170;-90
2022/08/25 15:37:09;;;;;;;24.38;6.50;;;;;;;;;;6050905;23;20186;-89
2022/08/25 15:40:15;;;;;;;17.65;5.72;;;;;;;;;;6053326;23;20239;-88
2022/08/25 15:43:21;;;;;;;18.42;6.65;;;;;;;;;;6049295;23;20182;-90
2022/08/25 15:46:28;;;;;;;17.33;6.95;;;;;;;;;;6048964;23;20171;-89
2022/08/25 15:49:34;;;;;;;19.50;6.47;;;;;;;;;;6047384;23;20199;-91
2022/08/25 15:52:40;;;;;;;17.30;6.47;;;;;;;;;;6047641;23;20192;-90
2022/08/25 15:55:46;;;;;;;20.27;6.57;;;;;;;;;;6047747;23;20171;-90
2022/08/25 15:58:51;;;;;;;20.23;5.90;;;;;;;;;;6047197;23;20171;-89
2022/08/25 16:01:58;;;;;;;21.20;6.22;;;;;;;;;;6050330;23;20179;-89
2022/08/25 16:05:05;;;;;;;20.58;7.10;;;;;;;;;;6049762;23;20171;-90
2022/08/25 16:08:10;;;;;;;19.38;6.88;;;;;;;;;;6048749;23;20224;-88
2022/08/25 16:11:18;;;;;;;18.95;6.43;;;;;;;;;;6032654;23;20251;-90
2022/08/25 16:14:24;;;;;;;14.40;5.97;;;;;;;;;;6049184;23;20288;-90
2022/08/25 16:17:31;;;;;;;19.95;7.05;;;;;;;;;;6032898;23;20175;-93
2022/08/25 16:20:36;;;;;;;20.92;6.65;;;;;;;;;;6033965;23;20170;-90
2022/08/25 16:23:41;;;;;;;24.15;6.13;;;;;;;;;;6035084;23;20168;-92
2022/08/25 16:26:47;;;;;;;16.42;7.32;;;;;;;;;;6049189;23;20518;-88
2022/08/25 16:29:52;;;;;;;23.05;6.80;;;;;;;;;;6050132;23;20179;-90
2022/08/25 16:32:59;;;;;;;20.05;6.10;;;;;;;;;;6049783;23;20171;-90
2022/08/25 16:36:06;;;;;;;20.77;6.47;;;;;;;;;;6035489;23;20175;-89
2022/08/25 16:39:11;;;;;;;19.05;6.20;;;;;;;;;;6052789;23;20627;-88
2022/08/25 16:42:20;;;;;;;21.30;5.90;;;;;;;;;;6049618;23;20175;-90
2022/08/25 16:45:29;;;;;;;18.75;6.20;;;;;;;;;;6049915;23;20151;-90
2022/08/25 16:48:37;;;;;;;24.55;6.75;;;;;;;;;;6033172;23;20636;-89
2022/08/25 16:51:42;;;;;;;14.15;6.70;;;;;;;;;;6032312;23;20206;-91
2022/08/25 16:58:10;;;;;;;14.02;5.97;;;;;;;;;;6049847;23;20473;-89
2022/08/25 17:01:16;;;;;;;14.40;5.53;;;;;;;;;;6051736;23;20224;-90
2022/08/25 17:04:23;;;;;;;16.48;6.00;;;;;;;;;;6049997;23;20647;-90
2022/08/25 17:07:28;;;;;;;15.77;6.00;;;;;;;;;;6052770;23;20212;-91
2022/08/25 17:10:36;;;;;;;16.27;5.82;;;;;;;;;;6052164;23;20203;-92
2022/08/25 17:13:42;;;;;;;9.85;5.32;;;;;;;;;;6055352;23;20192;-89
2022/08/25 17:16:49;;;;;;;20.63;6.53;;;;;;;;;;6053939;23;20498;-88
2022/08/25 17:19:57;;;;;;;13.73;5.97;;;;;;;;;;6054031;23;20196;-90
2022/08/25 17:23:04;;;;;;;21.92;6.28;;;;;;;;;;6056980;23;20171;-89
2022/08/25 17:26:09;;;;;;;17.45;6.25;;;;;;;;;;6059764;23;20235;-88
2022/08/25 17:29:14;;;;;;;11.90;5.72;;;;;;;;;;6069692;23;20220;-89
2022/08/25 17:32:19;;;;;;;18.27;6.93;;;;;;;;;;6068918;23;20224;-90
2022/08/25 17:35:26;;;;;;;19.77;6.25;;;;;;;;;;6068552;23;20252;-90
2022/08/25 17:38:32;;;;;;;19.40;6.63;;;;;;;;;;6069423;23;20233;-89
2022/08/25 17:41:37;;;;;;;12.50;6.20;;;;;;;;;;6068640;23;20175;-88
2022/08/25 17:44:43;;;;;;;12.80;5.85;;;;;;;;;;6069804;23;20216;-90
2022/08/25 17:47:48;;;;;;;14.75;6.38;;;;;;;;;;6068481;23;20175;-88
2022/08/25 17:50:55;;;;;;;19.38;6.93;;;;;;;;;;6053144;23;20224;-88
2022/08/25 17:54:00;;;;;;;18.13;7.38;;;;;;;;;;6051749;23;20171;-89
2022/08/25 17:57:06;;;;;;;14.27;6.47;;;;;;;;;;6068957;23;20187;-87
2022/08/25 18:00:12;;;;;;;18.05;7.18;;;;;;;;;;6071367;23;20179;-88
2022/08/25 18:03:19;;;;;;;18.67;6.55;;;;;;;;;;6069510;23;20247;-87
2022/08/25 18:06:28;;;;;;;14.20;6.50;;;;;;;;;;6070341;23;20178;-88
2022/08/25 18:09:34;;;;;;;18.33;6.80;;;;;;;;;;6071294;23;20167;-87
2022/08/25 18:12:39;;;;;;;22.00;8.18;;;;;;;;;;6070012;23;20600;-88
2022/08/25 18:15:45;;;;;;;15.57;6.93;;;;;;;;;;6069636;23;20167;-89
2022/08/25 18:18:52;;;;;;;17.45;7.30;;;;;;;;;;6071640;23;20221;-90
2022/08/25 18:22:03;;;;;;;18.30;6.75;;;;;;;;;;6070528;23;20170;-90
2022/08/25 18:25:12;;;;;;;19.08;7.82;;;;;;;;;;6072541;23;20212;-89
2022/08/25 18:28:18;;;;;;;17.38;7.95;;;;;;;;;;6072782;23;20170;-89
2022/08/25 18:31:23;;;;;;;16.42;7.22;;;;;;;;;;6070479;23;20218;-89
2022/08/25 18:34:30;;;;;;;17.45;7.70;;;;;;;;;;6069440;23;20192;-90
2022/08/25 18:41:01;;;;;;;17.70;7.50;;;;;;;;;;6069291;23;20579;-90
2022/08/25 18:44:07;;;;;;;24.08;8.80;;;;;;;;;;6070239;23;20200;-90
2022/08/25 18:51:30;;;;;;;16.60;7.55;;;;;;;;;;6053515;23;20350;-90
2022/08/25 18:54:38;;;;;;;18.77;7.68;;;;;;;;;;6068884;23;20183;-91
2022/08/25 18:57:43;;;;;;;24.55;7.30;;;;;;;;;;6068556;23;20248;-90
2022/08/25 19:00:49;;;;;;;20.73;8.00;;;;;;;;;;6069388;23;20179;-93
2022/08/25 19:03:54;;;;;;;18.73;7.78;;;;;;;;;;6067598;23;20220;-90
2022/08/25 19:07:00;;;;;;;19.42;8.13;;;;;;;;;;6068593;23;20158;-91
2022/08/25 19:10:07;;;;;;;17.20;7.97;;;;;;;;;;6051402;23;20171;-90
2022/08/25 19:13:12;;;;;;;20.13;8.60;;;;;;;;;;6070078;23;20172;-90
2022/08/25 19:16:19;;;;;;;20.38;8.65;;;;;;;;;;6069380;23;20174;-89
2022/08/25 19:19:24;;;;;;;19.60;9.02;;;;;;;;;;6067840;23;20179;-90
2022/08/25 19:22:29;;;;;;;20.58;9.32;;;;;;;;;;6069503;23;20223;-90
2022/08/25 19:25:36;;;;;;;24.60;9.25;;;;;;;;;;6067199;23;20606;-89
2022/08/25 19:28:42;;;;;;;15.55;8.98;;;;;;;;;;6050748;23;20171;-90
2022/08/25 19:31:49;;;;;;;16.65;8.98;;;;;;;;;;6065489;23;20536;-89
2022/08/25 19:34:55;;;;;;;24.30;8.93;;;;;;;;;;6066509;23;20179;-90
2022/08/25 19:38:01;;;;;;;21.98;9.35;;;;;;;;;;6066963;23;20175;-91
2022/08/25 19:41:08;;;;;;;21.80;10.23;;;;;;;;;;6067732;23;20171;-89
2022/08/25 19:44:13;;;;;;;19.67;9.05;;;;;;;;;;6065530;23;20171;-91
2022/08/25 19:47:18;;;;;;;24.83;10.05;;;;;;;;;;6067312;23;20187;-89
2022/08/25 19:50:24;;;;;;;20.60;9.60;;;;;;;;;;6068550;23;20247;-90
2022/08/25 19:53:29;;;;;;;28.23;9.45;;;;;;;;;;6051599;23;20207;-91
2022/08/25 19:56:35;;;;;;;23.67;10.05;;;;;;;;;;6066625;23;20175;-89
2022/08/25 19:59:43;;;;;;;18.17;9.73;;;;;;;;;;6066714;23;20155;-89
2022/08/25 20:02:49;;;;;;;19.05;9.38;;;;;;;;;;6068536;23;20183;-88
2022/08/25 20:05:55;;;;;;;22.65;9.73;;;;;;;;;;6065785;23;20175;-89
2022/08/25 20:09:01;;;;;;;22.63;8.80;;;;;;;;;;6051449;23;20243;-89
2022/08/25 20:12:08;;;;;;;21.25;9.95;;;;;;;;;;6050733;23;20764;-88
2022/08/25 20:15:15;;;;;;;23.98;10.18;;;;;;;;;;6052478;23;20171;-88
2022/08/25 20:18:20;;;;;;;20.40;9.48;;;;;;;;;;6068069;23;20228;-88